Time;durP1;ratioP1;P1;durP2;ratioP2;P2;SDS_P1;SDS_P2;PMS_P1;PMS_P2;Temp;Humidity;BMP_temperature;BMP_pressure;BME280_temperature;BME280_humidity;BME280_pressure;Samples;Min_cycle;Max_cycle;Signal;HPM_P1;HPM_P2
2022/07/01 00:02:11;;;;;;;17.12;15.32;;;;;;;22.52;66.45;99798.45;2193895;80;29889;-65
2022/07/01 00:05:14;;;;;;;25.00;15.23;;;;;;;22.48;66.41;99790.23;2193586;80;32027;-64
2022/07/01 00:08:15;;;;;;;16.05;14.45;;;;;;;22.44;66.40;99793.81;2193721;81;33069;-63
2022/07/01 00:11:17;;;;;;;17.15;15.40;;;;;;;22.41;66.52;99791.38;2194094;80;29028;-63
2022/07/01 00:14:19;;;;;;;18.05;13.85;;;;;;;22.37;66.60;99785.91;2194142;80;27677;-62
2022/07/01 00:17:21;;;;;;;14.33;10.03;;;;;;;22.33;66.59;99786.75;2193680;80;29970;-64
2022/07/01 00:20:22;;;;;;;17.20;14.75;;;;;;;22.33;66.25;99781.83;2194019;81;31455;-63
2022/07/01 00:23:23;;;;;;;19.27;13.43;;;;;;;22.31;66.29;99794.25;2194058;81;32961;-64
2022/07/01 00:26:25;;;;;;;7.90;6.75;;;;;;;22.29;66.03;99780.78;2193893;81;29469;-63
2022/07/01 00:29:26;;;;;;;17.60;14.47;;;;;;;22.30;66.11;99785.72;2194207;81;27629;-63
2022/07/01 00:32:27;;;;;;;6.42;5.85;;;;;;;22.30;66.05;99778.41;2193712;80;30044;-63
2022/07/01 00:35:29;;;;;;;14.93;12.65;;;;;;;22.32;65.76;99772.77;2194059;81;32175;-63
2022/07/01 00:38:30;;;;;;;14.98;13.32;;;;;;;22.33;65.87;99770.91;2193936;80;33326;-64
2022/07/01 00:41:32;;;;;;;15.70;12.35;;;;;;;22.31;65.70;99763.73;2194097;81;30137;-63
2022/07/01 00:44:33;;;;;;;16.65;13.03;;;;;;;22.31;65.64;99765.59;2194053;81;27666;-62
2022/07/01 00:47:34;;;;;;;15.68;12.25;;;;;;;22.29;65.61;99764.91;2193983;81;29853;-63
2022/07/01 00:50:35;;;;;;;15.85;11.63;;;;;;;22.28;65.75;99772.74;2193984;80;30945;-62
2022/07/01 00:53:37;;;;;;;19.20;12.30;;;;;;;22.24;65.62;99767.30;2190095;79;33361;-62
2022/07/01 00:56:38;;;;;;;14.47;12.15;;;;;;;22.23;65.61;99776.50;2140053;83;29487;-63
2022/07/01 00:59:40;;;;;;;15.10;12.75;;;;;;;22.21;65.54;99781.27;2179763;81;27702;-62
2022/07/01 01:02:42;;;;;;;15.78;13.22;;;;;;;22.19;65.57;99784.14;2153453;81;29150;-62
2022/07/01 01:05:43;;;;;;;14.30;12.90;;;;;;;22.16;65.77;99792.16;2154464;82;32229;-61
2022/07/01 01:08:46;;;;;;;14.68;12.95;;;;;;;22.12;65.90;99796.22;2212558;80;33420;-62
2022/07/01 01:11:50;;;;;;;17.27;12.58;;;;;;;22.06;65.88;99793.30;2189563;81;29859;-62
2022/07/01 01:14:52;;;;;;;14.63;12.03;;;;;;;21.99;66.01;99792.61;2153654;82;27710;-62
2022/07/01 01:17:54;;;;;;;14.28;12.65;;;;;;;21.95;66.13;99799.89;2153459;82;29882;-62
2022/07/01 01:20:55;;;;;;;14.53;13.05;;;;;;;21.89;66.23;99799.20;2153891;82;31043;-62
2022/07/01 01:23:58;;;;;;;15.20;12.47;;;;;;;21.83;66.44;99803.43;2183513;81;32367;-61
2022/07/01 01:26:59;;;;;;;16.70;12.60;;;;;;;21.80;66.79;99799.14;2212611;80;29057;-62
2022/07/01 01:30:01;;;;;;;17.87;14.70;;;;;;;21.76;67.08;99793.65;2192432;81;27717;-62
2022/07/01 01:33:02;;;;;;;18.45;14.55;;;;;;;21.71;67.10;99800.12;2197345;80;29895;-63
2022/07/01 01:36:09;;;;;;;17.60;14.58;;;;;;;21.66;67.22;99795.16;2179895;81;31725;-62
2022/07/01 01:39:15;;;;;;;11.10;9.80;;;;;;;;;;2181659;80;33344;-62
2022/07/01 01:42:16;;;;;;;15.70;14.10;;;;;;;21.55;67.51;99794.87;2140101;83;29412;-62
2022/07/01 01:45:17;;;;;;;20.50;15.55;;;;;;;21.52;67.72;99800.64;2179526;81;27680;-62
2022/07/01 01:48:19;;;;;;;18.65;15.20;;;;;;;21.49;67.98;99796.03;2140216;83;29086;-62
2022/07/01 01:51:20;;;;;;;18.82;15.32;;;;;;;21.45;68.08;99793.27;2210536;80;32180;-62
2022/07/01 01:54:21;;;;;;;19.55;16.50;;;;;;;21.41;68.42;99791.38;2196176;79;33291;-62
2022/07/01 01:57:23;;;;;;;16.32;14.20;;;;;;;21.34;68.19;99792.52;2199405;81;29099;-62
2022/07/01 02:00:25;;;;;;;16.73;14.43;;;;;;;21.31;68.31;99794.69;2178280;81;28203;-63
2022/07/01 02:03:26;;;;;;;18.05;13.38;;;;;;;21.25;68.32;99790.25;2160528;82;30045;-62
2022/07/01 02:06:28;;;;;;;18.82;14.40;;;;;;;21.20;68.39;99780.81;2161148;82;31593;-62
2022/07/01 02:09:29;;;;;;;21.80;13.88;;;;;;;21.16;68.57;99779.44;2168645;81;33572;-63
2022/07/01 02:12:31;;;;;;;15.48;13.35;;;;;;;21.13;68.77;99784.67;2237443;79;30123;-62
2022/07/01 02:15:33;;;;;;;15.55;13.78;;;;;;;21.10;68.97;99780.89;2237556;79;27679;-63
2022/07/01 02:18:34;;;;;;;19.10;13.90;;;;;;;21.07;69.15;99777.16;2237421;79;28390;-63
2022/07/01 02:21:35;;;;;;;22.35;13.93;;;;;;;21.02;69.53;99766.70;2203484;79;31533;-63
2022/07/01 02:24:37;;;;;;;19.45;13.95;;;;;;;21.00;69.42;99774.70;2144631;83;33127;-62
2022/07/01 02:27:40;;;;;;;18.85;14.93;;;;;;;20.96;69.43;99775.52;2161766;82;29431;-63
2022/07/01 02:30:42;;;;;;;17.30;14.43;;;;;;;20.92;69.55;99774.98;2181997;81;27617;-62
2022/07/01 02:33:44;;;;;;;15.98;13.72;;;;;;;20.90;69.54;99767.97;2237057;79;28602;-62
2022/07/01 02:36:46;;;;;;;16.70;14.03;;;;;;;20.87;70.00;99771.00;2237566;79;31769;-62
2022/07/01 02:39:47;;;;;;;19.07;13.90;;;;;;;20.84;69.85;99766.73;2226073;79;34366;-63
2022/07/01 02:42:49;;;;;;;17.67;14.03;;;;;;;20.81;69.90;99764.84;2200538;80;30372;-64
2022/07/01 02:45:51;;;;;;;21.23;13.50;;;;;;;20.79;70.05;99769.06;2200356;80;27669;-63
2022/07/01 02:48:52;;;;;;;18.52;15.13;;;;;;;20.77;70.08;99776.03;2201197;80;29888;-62
2022/07/01 02:51:53;;;;;;;18.75;14.40;;;;;;;20.75;70.01;99769.02;2201168;79;32164;-63
2022/07/01 02:54:55;;;;;;;16.62;13.93;;;;;;;20.74;70.11;99771.38;2191633;80;32814;-65
2022/07/01 02:57:57;;;;;;;17.60;13.68;;;;;;;20.74;70.15;99763.22;2186810;81;29228;-62
2022/07/01 03:00:59;;;;;;;15.48;13.78;;;;;;;20.74;70.21;99761.86;2215365;79;28169;-64
2022/07/01 03:04:00;;;;;;;17.75;13.68;;;;;;;20.76;70.16;99768.88;2229144;79;29867;-63
2022/07/01 03:07:03;;;;;;;14.63;13.03;;;;;;;20.77;70.10;99767.87;2229408;79;31017;-63
2022/07/01 03:10:09;;;;;;;15.83;14.05;;;;;;;20.81;70.10;99773.01;2213864;79;33819;-64
2022/07/01 03:13:11;;;;;;;13.88;12.23;;;;;;;20.85;70.01;99773.05;2186749;81;29638;-63
2022/07/01 03:16:12;;;;;;;15.72;13.13;;;;;;;20.89;70.17;99780.74;2186751;81;27576;-63
2022/07/01 03:19:14;;;;;;;21.05;13.78;;;;;;;20.94;70.13;99782.47;2189390;79;28660;-63
2022/07/01 03:22:16;;;;;;;15.30;12.63;;;;;;;21.04;70.01;99788.36;2229451;79;32227;-63
2022/07/01 03:25:17;;;;;;;18.00;12.55;;;;;;;21.14;69.81;99792.36;2229400;79;33126;-63
2022/07/01 03:28:18;;;;;;;15.98;12.58;;;;;;;21.25;69.64;99792.09;2229404;79;29965;-63
2022/07/01 03:31:19;;;;;;;16.32;13.28;;;;;;;21.40;69.38;99795.12;2197284;79;28123;-62
2022/07/01 03:34:21;;;;;;;17.40;13.38;;;;;;;21.54;69.25;99796.38;2186658;81;29758;-62
2022/07/01 03:37:23;;;;;;;17.27;13.38;;;;;;;21.69;69.01;99791.24;2186388;81;31072;-62
2022/07/01 03:40:25;;;;;;;15.48;12.75;;;;;;;21.84;68.88;99786.89;2204552;79;34169;-63
2022/07/01 03:43:29;;;;;;;20.30;13.60;;;;;;;21.98;68.62;99792.75;2228917;79;31180;-62
2022/07/01 03:46:31;;;;;;;;;;;;;;;22.08;68.34;99787.17;2231827;79;27673;-62
2022/07/01 03:49:34;;;;;;;14.85;12.25;;;;;;;22.16;68.10;99783.12;2223933;79;29044;-63
2022/07/01 03:52:35;;;;;;;19.07;12.98;;;;;;;22.20;67.77;99777.66;2186614;81;30991;-63
2022/07/01 03:55:37;;;;;;;17.12;12.78;;;;;;;22.28;67.73;99776.34;2181150;80;33357;-63
2022/07/01 03:58:39;;;;;;;15.90;13.10;;;;;;;22.36;67.68;99779.61;2140328;83;29061;-64
2022/07/01 04:01:40;;;;;;;19.82;12.68;;;;;;;22.42;67.41;99771.30;2123313;82;28244;-62
2022/07/01 04:04:41;;;;;;;18.27;13.55;;;;;;;22.58;67.49;99782.77;2104607;84;29123;-63
2022/07/01 04:07:43;;;;;;;15.53;10.95;;;;;;;22.67;67.10;99783.64;2141767;83;31041;-62
2022/07/01 04:10:44;;;;;;;23.35;12.98;;;;;;;22.74;66.97;99789.63;2123234;81;33450;-63
2022/07/01 04:13:50;;;;;;;17.85;14.18;;;;;;;22.82;66.55;99794.25;2179765;81;28927;-63
2022/07/01 04:16:51;;;;;;;16.48;14.75;;;;;;;22.92;66.64;99788.59;2140660;83;27684;-64
2022/07/01 04:19:52;;;;;;;18.32;11.28;;;;;;;23.09;66.51;99787.24;2146437;82;28650;-64
2022/07/01 04:22:55;;;;;;;20.90;13.58;;;;;;;23.21;66.02;99784.56;2142622;83;32234;-64
2022/07/01 04:25:58;;;;;;;16.07;11.80;;;;;;;23.31;66.01;99793.42;2103941;84;33587;-63
2022/07/01 04:28:59;;;;;;;16.55;12.82;;;;;;;23.44;65.79;99799.74;2142088;83;29096;-63
2022/07/01 04:32:00;;;;;;;22.62;14.28;;;;;;;23.56;65.60;99798.02;2137991;81;27683;-63
2022/07/01 04:35:02;;;;;;;14.05;12.65;;;;;;;23.73;65.46;99792.84;2153801;82;29891;-63
2022/07/01 04:38:04;;;;;;;15.63;10.90;;;;;;;23.88;64.97;99787.52;2179663;81;31290;-63
2022/07/01 04:44:09;;;;;;;14.45;13.03;;;;;;;24.24;64.27;99799.36;2066107;86;30060;-63
2022/07/01 04:47:10;;;;;;;13.50;9.88;;;;;;;24.47;64.39;99805.95;2066491;86;27783;-64
2022/07/01 04:50:12;;;;;;;13.88;9.85;;;;;;;24.95;64.36;99801.72;2033481;87;29071;-63
2022/07/01 04:53:14;;;;;;;15.90;12.45;;;;;;;25.87;63.65;99799.36;2011656;88;31999;-63
2022/07/01 04:56:16;;;;;;;15.08;12.07;;;;;;;26.97;62.75;99793.16;2049197;84;33104;-64
2022/07/01 04:59:17;;;;;;;19.20;12.88;;;;;;;28.19;60.78;99791.64;2049878;86;29714;-61
2022/07/01 05:02:18;;;;;;;19.17;12.63;;;;;;;29.19;60.13;99789.70;2048061;86;27813;-61
2022/07/01 05:05:20;;;;;;;20.48;11.45;;;;;;;30.20;57.10;99785.44;2000508;89;28689;-61
2022/07/01 05:08:21;;;;;;;22.20;13.03;;;;;;;31.14;55.34;99792.42;2030869;87;31063;-61
2022/07/01 05:11:22;;;;;;;9.65;7.78;;;;;;;31.86;54.48;99787.00;2029789;87;33350;-62
2022/07/01 05:14:24;;;;;;;16.07;10.38;;;;;;;32.51;53.15;99787.02;1989338;89;30587;-62
2022/07/01 05:21:55;;;;;;;14.70;10.90;;;;;;;33.01;51.43;99781.72;1990387;89;27787;-62
2022/07/01 05:23:48;;;;;;;8.35;6.87;;;;;;;33.60;48.96;99782.34;2091193;83;32229;-62
2022/07/01 05:26:50;;;;;;;15.10;12.35;;;;;;;34.29;48.94;99773.89;2142528;83;32994;-63
2022/07/01 05:29:53;;;;;;;18.95;12.80;;;;;;;34.90;47.62;99776.19;2104420;84;29209;-63
2022/07/01 05:32:57;;;;;;;16.20;12.10;;;;;;;35.38;46.94;99776.75;2156744;80;27663;-63
2022/07/01 05:35:58;;;;;;;15.18;12.68;;;;;;;35.86;45.96;99773.02;2139935;83;28803;-62
2022/07/01 05:39:00;;;;;;;9.88;9.00;;;;;;;36.22;44.93;99776.88;2125744;82;31440;-63
2022/07/01 05:42:03;;;;;;;14.47;11.93;;;;;;;36.73;43.94;99771.91;2142084;81;33752;-63
2022/07/01 05:45:06;;;;;;;16.33;12.87;;;;;;;37.01;41.83;99781.13;2154848;82;29030;-63
2022/07/01 05:48:08;;;;;;;22.90;13.53;;;;;;;37.14;41.72;99791.03;2213052;80;27668;-62
2022/07/01 05:51:09;;;;;;;11.97;10.72;;;;;;;37.50;41.49;99798.31;2192242;81;29731;-62
2022/07/01 05:54:10;;;;;;;13.05;11.83;;;;;;;37.88;40.90;99801.63;2188638;80;31107;-62
2022/07/01 05:57:11;;;;;;;10.05;9.03;;;;;;;38.06;39.70;99805.40;2193587;81;33148;-62
2022/07/01 06:00:14;;;;;;;8.90;7.17;;;;;;;38.19;39.28;99805.47;2193589;81;29502;-63
2022/07/01 06:03:16;;;;;;;13.08;11.78;;;;;;;38.20;38.38;99779.72;2211219;79;27717;-63
2022/07/01 06:06:19;;;;;;;14.43;11.28;;;;;;;38.20;38.38;99779.72;2206600;79;29204;-63
2022/07/01 06:09:20;;;;;;;14.33;12.43;;;;;;;38.54;38.24;99795.56;2233004;79;32191;-63
2022/07/01 06:12:22;;;;;;;11.22;9.90;;;;;;;38.81;37.42;99793.09;2228234;79;34060;-62
2022/07/01 06:15:24;;;;;;;15.15;12.90;;;;;;;38.99;37.28;99779.70;2193564;81;29925;-62
2022/07/01 06:18:26;;;;;;;7.13;6.50;;;;;;;39.06;36.28;99777.44;2193685;81;27673;-62
2022/07/01 06:21:28;;;;;;;15.13;12.03;;;;;;;39.02;34.99;99779.14;2193455;81;28629;-62
2022/07/01 06:24:29;;;;;;;6.75;6.08;;;;;;;38.97;34.99;99775.76;2181599;81;32208;-62
2022/07/01 06:27:30;;;;;;;17.55;12.13;;;;;;;39.07;35.13;99770.72;2188436;81;34059;-62
2022/07/01 06:30:32;;;;;;;14.18;10.68;;;;;;;39.44;35.47;99773.00;2188386;81;30171;-62
2022/07/01 06:33:33;;;;;;;15.15;12.03;;;;;;;39.78;35.02;99773.22;2167832;81;27657;-71
2022/07/01 06:36:35;;;;;;;18.55;12.93;;;;;;;40.16;34.36;99784.61;2186399;81;29069;-71
2022/07/01 06:39:36;;;;;;;15.25;13.50;;;;;;;40.38;34.33;99772.44;2186716;81;31056;-71
2022/07/01 06:42:37;;;;;;;14.58;12.75;;;;;;;40.24;33.63;99769.44;2194535;79;33742;-75
2022/07/01 06:45:40;;;;;;;13.85;12.25;;;;;;;40.48;33.99;99769.31;2229318;79;29802;-75
2022/07/01 06:48:41;;;;;;;;;;;;;;;40.67;33.54;99778.78;2232266;79;27671;-76
2022/07/01 06:51:43;;;;;;;17.55;11.53;;;;;;;40.87;33.23;99778.38;2229458;79;28621;-75
2022/07/01 06:54:44;;;;;;;14.03;11.95;;;;;;;41.03;33.24;99776.84;2192113;79;31009;-68
2022/07/01 06:57:46;;;;;;;19.15;11.43;;;;;;;41.10;32.44;99767.53;2179338;81;33017;-74
2022/07/01 07:00:47;;;;;;;13.85;11.55;;;;;;;41.16;32.20;99764.95;2140080;83;29704;-74
2022/07/01 07:03:48;;;;;;;16.32;11.53;;;;;;;41.19;32.49;99762.97;2199214;80;27733;-72
2022/07/01 07:06:49;;;;;;;17.67;11.50;;;;;;;41.38;32.34;99764.47;2191941;81;28672;-68
2022/07/01 07:09:51;;;;;;;14.03;10.80;;;;;;;41.62;32.11;99763.67;2212176;80;31379;-67
2022/07/01 07:12:53;;;;;;;17.60;12.07;;;;;;;41.76;31.95;99765.22;2183437;81;34136;-67
2022/07/01 07:15:55;;;;;;;18.23;12.75;;;;;;;41.96;31.45;99761.94;2154103;82;29381;-67
2022/07/01 07:18:56;;;;;;;13.15;10.80;;;;;;;41.85;31.08;99754.15;2154396;82;27674;-65
2022/07/01 07:21:58;;;;;;;12.53;11.35;;;;;;;42.04;31.27;99751.41;2172008;81;29938;-67
2022/07/01 07:25:00;;;;;;;15.13;10.82;;;;;;;42.25;29.69;99749.73;2212667;80;32205;-67
2022/07/01 07:28:01;;;;;;;19.92;12.00;;;;;;;42.26;30.35;99758.45;2192491;81;34139;-67
2022/07/01 07:31:03;;;;;;;15.65;11.38;;;;;;;42.33;30.39;99761.16;2211196;80;29820;-67
2022/07/01 07:34:04;;;;;;;14.45;10.78;;;;;;;42.53;30.16;99748.55;2192262;81;27526;-67
2022/07/01 07:37:05;;;;;;;14.68;11.65;;;;;;;42.57;29.83;99748.17;2212734;80;29462;-67
2022/07/01 07:43:22;;;;;;;15.20;10.98;;;;;;;42.68;29.85;99754.49;2298232;77;27699;-66
2022/07/01 07:46:24;;;;;;;17.00;11.60;;;;;;;42.78;29.58;99755.73;2263162;78;27697;-66
2022/07/01 07:49:26;;;;;;;12.10;11.00;;;;;;;42.85;28.63;99759.63;2263816;78;29661;-66
2022/07/01 07:52:27;;;;;;;14.07;10.98;;;;;;;42.71;29.24;99763.16;2264340;78;30439;-65
2022/07/01 07:55:28;;;;;;;15.15;10.68;;;;;;;42.85;29.15;99768.91;2220210;80;32755;-66
2022/07/01 07:58:30;;;;;;;16.93;10.90;;;;;;;42.84;29.17;99774.86;2220049;80;28361;-67
2022/07/01 08:01:31;;;;;;;20.15;12.30;;;;;;;42.92;29.27;99786.83;2219774;79;27706;-67
2022/07/01 08:04:32;;;;;;;15.20;11.33;;;;;;;42.99;29.22;99779.39;2218144;80;28605;-66
2022/07/01 08:07:42;;;;;;;12.05;10.43;;;;;;;43.02;28.33;99773.14;2218090;79;30987;-67
2022/07/01 08:10:43;;;;;;;13.55;10.75;;;;;;;42.94;28.79;99781.14;2218073;80;33034;-68
2022/07/01 08:13:45;;;;;;;12.60;10.03;;;;;;;43.01;29.00;99782.74;2220109;80;28701;-68
2022/07/01 08:16:46;;;;;;;14.93;11.00;;;;;;;43.06;28.66;99779.27;2220317;79;27605;-67
2022/07/01 08:19:47;;;;;;;12.70;10.90;;;;;;;43.16;28.79;99776.84;2220201;79;28623;-68
2022/07/01 08:22:49;;;;;;;15.35;10.68;;;;;;;43.23;27.80;99777.88;2218889;79;31791;-68
2022/07/01 08:25:51;;;;;;;15.18;11.20;;;;;;;43.03;28.45;99773.41;2218148;79;32377;-68
2022/07/01 08:28:52;;;;;;;16.02;11.15;;;;;;;43.06;28.85;99767.98;2218307;79;28871;-69
2022/07/01 08:31:54;;;;;;;14.67;10.47;;;;;;;43.19;28.60;99772.00;2219115;80;27604;-68
2022/07/01 08:34:55;;;;;;;14.68;10.18;;;;;;;43.17;28.96;99770.06;2219916;79;28734;-68
2022/07/01 08:37:57;;;;;;;14.50;10.98;;;;;;;43.16;28.95;99757.70;2220313;80;30977;-69
2022/07/01 08:41:01;;;;;;;13.95;10.05;;;;;;;43.10;28.62;99768.23;2219972;78;32922;-69
2022/07/01 08:44:03;;;;;;;12.55;11.25;;;;;;;42.77;28.71;99766.17;2218122;80;29539;-68
2022/07/01 08:47:04;;;;;;;12.78;10.82;;;;;;;42.39;28.76;99763.94;2218401;80;27608;-68
2022/07/01 08:50:06;;;;;;;13.48;10.68;;;;;;;42.20;28.46;99759.91;2218127;80;28681;-68
2022/07/01 08:53:10;;;;;;;13.15;10.82;;;;;;;41.76;28.78;99759.05;2219600;80;31016;-67
2022/07/01 08:59:32;;;;;;;14.25;11.10;;;;;;;41.22;29.91;99758.14;2219310;79;28757;-68
2022/07/01 09:02:54;;;;;;;13.38;10.15;;;;;;;41.25;29.96;99758.13;2218574;79;27632;-68
2022/07/01 09:05:55;;;;;;;11.20;10.18;;;;;;;41.18;30.36;99762.70;2217557;80;28702;-68
2022/07/01 09:09:05;;;;;;;11.93;10.48;;;;;;;41.19;30.03;99764.37;2217506;80;30995;-69
2022/07/01 09:12:07;;;;;;;11.55;10.15;;;;;;;41.18;30.41;99768.87;2212416;80;32978;-68
2022/07/01 09:15:30;;;;;;;12.65;11.05;;;;;;;41.14;30.61;99766.64;2219631;80;28726;-67
2022/07/01 09:18:31;;;;;;;24.10;10.65;;;;;;;40.91;30.38;99763.16;2219715;79;27663;-67
2022/07/01 09:21:33;;;;;;;12.25;10.65;;;;;;;40.68;30.88;99762.75;2218813;80;28674;-67
2022/07/01 09:24:42;;;;;;;26.48;11.20;;;;;;;40.55;31.17;99757.19;2217387;80;31913;-66
2022/07/01 09:27:43;;;;;;;13.32;11.43;;;;;;;40.43;31.13;99752.49;2217394;80;33740;-68
2022/07/01 09:30:49;;;;;;;11.03;10.03;;;;;;;40.42;31.16;99747.45;2217080;79;28759;-67
2022/07/01 09:34:10;;;;;;;14.07;10.90;;;;;;;40.43;31.27;99742.13;2219335;80;27653;-68
2022/07/01 09:37:16;;;;;;;11.67;10.63;;;;;;;40.46;31.07;99736.48;2219317;79;27687;-68
2022/07/01 09:40:17;;;;;;;13.28;10.68;;;;;;;40.45;31.05;99737.61;2219334;79;31002;-68
2022/07/01 09:43:26;;;;;;;21.33;10.55;;;;;;;40.36;31.06;99731.77;2225832;79;32405;-68
2022/07/01 09:46:27;;;;;;;10.78;9.25;;;;;;;40.18;30.88;99733.25;2227921;79;29559;-68
2022/07/01 09:49:29;;;;;;;15.13;10.43;;;;;;;40.01;31.22;99734.99;2228365;79;27776;-68
2022/07/01 09:52:31;;;;;;;11.90;10.68;;;;;;;39.96;31.61;99735.86;2228885;79;29393;-68
2022/07/01 09:55:34;;;;;;;11.73;10.13;;;;;;;39.87;31.31;99727.78;2229944;79;31050;-68
2022/07/01 09:58:38;;;;;;;19.52;11.12;;;;;;;39.76;35.90;99722.19;2183351;81;33752;-68
2022/07/01 10:01:40;;;;;;;19.15;10.43;;;;;;;39.53;33.49;99725.61;2182719;81;29574;-68
2022/07/01 10:04:55;;;;;;;13.90;9.85;;;;;;;39.28;33.05;99728.15;2181414;81;27578;-68
2022/07/01 10:08:17;;;;;;;11.78;10.58;;;;;;;38.95;32.56;99725.34;2158169;82;28651;-68
2022/07/01 10:12:03;;;;;;;17.10;10.88;;;;;;;38.62;32.76;99721.94;2144081;83;31782;-68
2022/07/01 10:15:08;;;;;;;12.28;10.43;;;;;;;38.49;32.80;99719.97;2123155;83;32966;-68
2022/07/01 10:18:25;;;;;;;12.05;9.88;;;;;;;38.54;33.30;99714.92;2145901;82;28727;-68
2022/07/01 10:21:30;;;;;;;14.80;9.68;;;;;;;38.65;32.69;99711.59;2113792;82;27671;-68
2022/07/01 10:24:32;;;;;;;11.10;10.00;;;;;;;38.49;32.56;99704.57;2146029;83;28670;-68
2022/07/01 10:27:33;;;;;;;12.33;9.83;;;;;;;38.32;32.29;99699.17;2123180;83;31711;-68
2022/07/01 10:30:35;;;;;;;12.63;9.85;;;;;;;38.26;32.87;99701.70;2145638;83;33028;-68
2022/07/01 10:33:57;;;;;;;12.35;9.38;;;;;;;38.23;32.98;99698.88;2173628;81;28713;-68
2022/07/01 10:37:08;;;;;;;11.15;9.48;;;;;;;38.15;32.80;99687.66;2160093;81;27735;-68
2022/07/01 10:40:09;;;;;;;11.28;10.10;;;;;;;38.03;33.03;99682.05;2145761;82;28663;-69
2022/07/01 10:43:11;;;;;;;15.30;10.82;;;;;;;37.97;32.82;99674.20;2202902;79;31051;-69
2022/07/01 10:46:34;;;;;;;11.08;9.98;;;;;;;37.79;32.34;99674.09;2217131;79;34065;-69
2022/07/01 10:49:42;;;;;;;12.07;9.58;;;;;;;37.47;32.83;99677.84;2217686;79;29329;-70
2022/07/01 10:53:02;;;;;;;11.25;10.05;;;;;;;37.24;33.23;99675.17;2218210;80;27666;-69
2022/07/01 10:56:04;;;;;;;16.87;10.20;;;;;;;37.17;33.42;99671.77;2219367;80;28683;-69
2022/07/01 10:59:05;;;;;;;11.57;9.13;;;;;;;37.07;33.52;99675.89;2219444;80;31108;-69
2022/07/01 11:02:16;;;;;;;12.10;9.90;;;;;;;37.03;33.38;99681.72;2218814;80;33721;-69
2022/07/01 11:05:18;;;;;;;11.25;9.73;;;;;;;36.98;33.50;99698.45;2217443;79;29403;-69
2022/07/01 11:08:20;;;;;;;11.45;9.90;;;;;;;36.90;33.37;99703.95;2217443;79;27672;-69
2022/07/01 11:11:22;;;;;;;9.90;8.70;;;;;;;36.78;33.60;99709.70;2217303;80;29482;-69
2022/07/01 11:14:23;;;;;;;10.35;9.15;;;;;;;36.67;33.25;99715.73;2219484;79;31660;-69
2022/07/01 11:17:26;;;;;;;13.18;9.48;;;;;;;36.59;33.38;99707.83;2219431;80;32903;-68
2022/07/01 11:20:31;;;;;;;14.87;10.00;;;;;;;36.47;33.78;99692.67;2219659;79;28719;-68
2022/07/01 11:23:34;;;;;;;12.28;9.20;;;;;;;36.42;33.61;99680.84;2218070;79;27652;-69
2022/07/01 11:26:35;;;;;;;13.85;9.75;;;;;;;36.22;33.57;99663.36;2217396;80;28651;-68
2022/07/01 11:29:37;;;;;;;10.93;9.53;;;;;;;36.15;34.07;99664.14;2217404;80;30985;-70
2022/07/01 11:32:43;;;;;;;10.65;8.65;;;;;;;36.08;33.90;99676.03;2217645;80;33008;-69
2022/07/01 11:39:22;;;;;;;12.23;8.60;;;;;;;36.04;34.70;99664.57;2219582;79;27660;-67
2022/07/01 11:42:26;;;;;;;14.43;9.35;;;;;;;36.08;34.50;99674.07;2221106;78;28667;-69
2022/07/01 11:45:28;;;;;;;14.00;9.20;;;;;;;36.18;34.41;99678.39;2228435;79;31834;-69
2022/07/01 11:48:51;;;;;;;13.70;7.70;;;;;;;36.31;34.61;99667.38;2228326;79;33021;-69
2022/07/01 11:52:05;;;;;;;8.68;7.85;;;;;;;36.43;34.13;99663.01;2228497;79;29545;-68
2022/07/01 11:55:07;;;;;;;8.28;6.87;;;;;;;36.48;34.02;99645.53;2230596;79;27675;-68
2022/07/01 11:58:09;;;;;;;11.20;8.20;;;;;;;36.57;34.10;99654.27;2230114;79;28594;-68
2022/07/01 12:01:10;;;;;;;9.73;8.30;;;;;;;36.60;33.67;99648.13;2143817;83;31049;-68
2022/07/01 12:04:14;;;;;;;9.33;7.60;;;;;;;36.58;33.22;99658.17;2147617;82;33048;-69
2022/07/01 12:07:18;;;;;;;10.25;9.20;;;;;;;36.55;33.32;99666.23;2130088;83;28721;-68
2022/07/01 12:10:25;;;;;;;9.85;7.80;;;;;;;36.61;33.76;99668.80;2144692;82;27643;-69
2022/07/01 12:13:27;;;;;;;12.53;7.78;;;;;;;36.71;33.65;99668.59;2150846;82;28749;-69
2022/07/01 12:16:40;;;;;;;17.90;8.20;;;;;;;36.67;33.38;99689.77;2143901;82;31664;-69
2022/07/01 12:19:48;;;;;;;12.88;7.37;;;;;;;36.40;33.78;99705.41;2157982;82;32973;-68
2022/07/01 12:22:49;;;;;;;13.62;6.60;;;;;;;36.03;34.13;99731.20;2144233;82;29518;-69
2022/07/01 12:25:52;;;;;;;14.50;7.20;;;;;;;35.58;34.31;99738.64;2159831;82;27685;-68
2022/07/01 12:28:54;;;;;;;12.18;6.30;;;;;;;35.16;34.79;99730.73;2145834;83;28292;-67
2022/07/01 12:32:02;;;;;;;8.90;6.45;;;;;;;34.86;35.17;99717.41;2146295;82;31021;-68
2022/07/01 12:35:33;;;;;;;10.48;6.30;;;;;;;34.65;35.54;99709.25;2146077;83;32994;-69
2022/07/01 12:38:17;;;;;;;8.55;6.37;;;;;;;34.53;36.07;99687.06;2141963;83;28785;-67
2022/07/01 12:41:36;;;;;;;9.90;6.75;;;;;;;34.33;36.32;99696.67;2145992;82;27607;-67
2022/07/01 12:44:44;;;;;;;6.58;5.95;;;;;;;34.18;36.61;99712.49;2145509;81;28673;-67
2022/07/01 12:47:51;;;;;;;14.50;7.33;;;;;;;34.02;37.14;99717.45;2146002;83;31087;-68
2022/07/01 12:50:57;;;;;;;12.03;6.92;;;;;;;33.85;37.21;99718.73;2145944;82;33588;-68
2022/07/01 12:53:59;;;;;;;10.05;7.45;;;;;;;33.72;37.64;99728.17;2145835;83;29071;-68
2022/07/01 12:57:01;;;;;;;9.33;6.55;;;;;;;33.59;37.91;99734.30;2145777;82;27656;-67
2022/07/01 13:00:04;;;;;;;11.38;6.28;;;;;;;33.40;38.18;99742.45;2145995;83;29499;-67
2022/07/01 13:03:06;;;;;;;11.45;6.40;;;;;;;33.22;38.31;99747.55;2145903;83;31102;-67
2022/07/01 13:06:07;;;;;;;10.60;6.45;;;;;;;32.85;38.41;99752.19;2145935;83;32980;-67
2022/07/01 13:09:09;;;;;;;8.35;5.60;;;;;;;32.42;38.71;99756.83;2145979;83;29069;-67
2022/07/01 13:12:10;;;;;;;8.63;6.20;;;;;;;32.15;39.15;99769.32;2145906;83;27706;-67
2022/07/01 13:15:14;;;;;;;8.80;6.37;;;;;;;31.86;39.40;99767.09;2145531;83;28712;-68
2022/07/01 13:18:15;;;;;;;11.80;6.90;;;;;;;31.57;39.80;99761.19;2146058;82;31062;-68
2022/07/01 13:21:19;;;;;;;9.53;5.97;;;;;;;31.31;40.46;99764.50;2145622;83;27888;-69
2022/07/01 13:24:21;;;;;;;10.30;5.80;;;;;;;31.09;40.81;99779.78;2145855;83;29083;-69
2022/07/01 13:27:23;;;;;;;8.30;6.37;;;;;;;30.96;41.29;99793.17;2145910;83;27723;-71
2022/07/01 13:30:24;;;;;;;8.70;6.10;;;;;;;30.80;41.72;99805.08;2145821;83;28650;-73
2022/07/01 13:33:26;;;;;;;12.40;7.55;;;;;;;30.63;42.04;99810.27;2145767;83;31844;-68
2022/07/01 13:36:27;;;;;;;10.18;7.47;;;;;;;30.47;42.32;99824.88;2145988;83;32607;-69
2022/07/01 13:39:28;;;;;;;8.38;6.83;;;;;;;30.28;42.90;99836.34;2145910;83;29807;-69
2022/07/01 13:42:30;;;;;;;10.68;6.67;;;;;;;30.07;42.99;99829.70;2145841;83;28203;-69
2022/07/01 13:45:32;;;;;;;10.48;6.60;;;;;;;29.94;43.46;99841.61;2180386;81;28745;-70
2022/07/01 13:48:33;;;;;;;11.00;7.20;;;;;;;29.75;43.73;99849.70;2219317;80;31103;-70
2022/07/01 13:51:35;;;;;;;10.48;6.45;;;;;;;29.58;44.10;99845.14;2178775;81;32997;-72
2022/07/01 13:54:37;;;;;;;10.90;6.55;;;;;;;29.36;44.32;99838.47;2217411;80;29008;-73
2022/07/01 13:57:38;;;;;;;8.43;6.33;;;;;;;29.16;44.64;99827.91;2217276;80;27711;-73
2022/07/01 14:00:39;;;;;;;10.88;7.05;;;;;;;28.94;44.96;99861.16;2217201;80;28647;-72
2022/07/01 14:03:41;;;;;;;11.20;7.42;;;;;;;28.73;45.44;99907.11;2218389;80;30989;-71
2022/07/01 14:06:42;;;;;;;11.75;7.10;;;;;;;28.55;47.19;99932.95;2219157;80;32965;-74
2022/07/01 14:09:44;;;;;;;21.00;9.08;;;;;;;28.31;48.05;99908.99;2219198;80;29097;-71
2022/07/01 14:12:45;;;;;;;13.85;9.35;;;;;;;28.01;49.21;99885.25;2218814;79;27727;-72
2022/07/01 14:15:47;;;;;;;13.75;9.30;;;;;;;27.68;50.02;99874.00;2217020;80;28753;-74
2022/07/01 14:18:50;;;;;;;12.85;9.73;;;;;;;27.43;51.02;99849.61;2197317;80;31878;-73
2022/07/01 14:21:52;;;;;;;11.80;9.60;;;;;;;27.21;51.65;99883.16;2217273;80;32987;-71
2022/07/01 14:24:53;;;;;;;14.00;10.40;;;;;;;26.96;52.45;99915.16;2218812;80;29007;-72